sensor_id;sensor_type;location;lat;lon;timestamp;P1;durP1;ratioP1;P2;durP2;ratioP2
49416;SDS011;35290;39.550;8.786;2022-11-12T00:00:26;14.35;;;6.03;;
49416;SDS011;35290;39.550;8.786;2022-11-12T00:02:51;16.23;;;6.13;;
49416;SDS011;35290;39.550;8.786;2022-11-12T00:05:17;9.45;;;5.18;;
49416;SDS011;35290;39.550;8.786;2022-11-12T00:07:43;11.73;;;5.57;;
49416;SDS011;35290;39.550;8.786;2022-11-12T00:10:09;14.27;;;5.80;;
49416;SDS011;35290;39.550;8.786;2022-11-12T00:12:34;14.07;;;5.78;;
49416;SDS011;35290;39.550;8.786;2022-11-12T00:15:00;10.40;;;5.15;;
49416;SDS011;35290;39.550;8.786;2022-11-12T00:17:25;15.40;;;5.45;;
49416;SDS011;35290;39.550;8.786;2022-11-12T00:19:51;14.75;;;5.35;;
49416;SDS011;35290;39.550;8.786;2022-11-12T00:22:18;11.70;;;5.20;;
49416;SDS011;35290;39.550;8.786;2022-11-12T00:24:44;19.75;;;6.93;;
49416;SDS011;35290;39.550;8.786;2022-11-12T00:27:09;13.77;;;5.50;;
49416;SDS011;35290;39.550;8.786;2022-11-12T00:29:34;12.48;;;5.63;;
49416;SDS011;35290;39.550;8.786;2022-11-12T00:32:00;16.27;;;5.88;;
49416;SDS011;35290;39.550;8.786;2022-11-12T00:34:25;13.18;;;5.60;;
49416;SDS011;35290;39.550;8.786;2022-11-12T00:36:51;9.27;;;4.90;;
49416;SDS011;35290;39.550;8.786;2022-11-12T00:39:16;14.27;;;5.15;;
49416;SDS011;35290;39.550;8.786;2022-11-12T00:41:42;13.77;;;5.03;;
49416;SDS011;35290;39.550;8.786;2022-11-12T00:44:07;14.63;;;4.80;;
49416;SDS011;35290;39.550;8.786;2022-11-12T00:46:33;11.10;;;4.85;;
49416;SDS011;35290;39.550;8.786;2022-11-12T00:48:59;11.07;;;4.88;;
49416;SDS011;35290;39.550;8.786;2022-11-12T00:51:25;13.50;;;4.78;;
49416;SDS011;35290;39.550;8.786;2022-11-12T00:53:50;10.48;;;4.88;;
49416;SDS011;35290;39.550;8.786;2022-11-12T00:56:16;11.35;;;4.65;;
49416;SDS011;35290;39.550;8.786;2022-11-12T00:58:41;11.43;;;4.68;;
49416;SDS011;35290;39.550;8.786;2022-11-12T01:01:08;9.52;;;4.60;;
49416;SDS011;35290;39.550;8.786;2022-11-12T01:03:35;12.88;;;5.15;;
49416;SDS011;35290;39.550;8.786;2022-11-12T01:06:05;14.50;;;5.43;;
49416;SDS011;35290;39.550;8.786;2022-11-12T01:08:32;11.03;;;5.07;;
49416;SDS011;35290;39.550;8.786;2022-11-12T01:11:05;10.70;;;4.75;;
49416;SDS011;35290;39.550;8.786;2022-11-12T01:13:36;11.27;;;5.13;;
49416;SDS011;35290;39.550;8.786;2022-11-12T01:16:09;12.98;;;5.00;;
49416;SDS011;35290;39.550;8.786;2022-11-12T01:18:43;12.50;;;5.20;;
49416;SDS011;35290;39.550;8.786;2022-11-12T01:21:09;10.90;;;4.72;;
49416;SDS011;35290;39.550;8.786;2022-11-12T01:23:35;17.45;;;5.20;;
49416;SDS011;35290;39.550;8.786;2022-11-12T01:26:06;10.85;;;4.53;;
49416;SDS011;35290;39.550;8.786;2022-11-12T01:28:32;10.45;;;4.40;;
49416;SDS011;35290;39.550;8.786;2022-11-12T01:31:08;15.77;;;5.50;;
49416;SDS011;35290;39.550;8.786;2022-11-12T01:33:44;10.38;;;5.15;;
49416;SDS011;35290;39.550;8.786;2022-11-12T01:36:12;15.75;;;5.03;;
49416;SDS011;35290;39.550;8.786;2022-11-12T01:38:38;11.50;;;5.78;;
49416;SDS011;35290;39.550;8.786;2022-11-12T01:41:06;9.10;;;5.13;;
49416;SDS011;35290;39.550;8.786;2022-11-12T01:43:32;15.88;;;5.85;;
49416;SDS011;35290;39.550;8.786;2022-11-12T01:45:58;9.48;;;5.38;;
49416;SDS011;35290;39.550;8.786;2022-11-12T01:48:29;13.68;;;5.47;;
49416;SDS011;35290;39.550;8.786;2022-11-12T01:51:01;13.07;;;5.35;;
49416;SDS011;35290;39.550;8.786;2022-11-12T01:53:28;12.25;;;5.78;;
49416;SDS011;35290;39.550;8.786;2022-11-12T01:55:55;17.05;;;5.88;;
49416;SDS011;35290;39.550;8.786;2022-11-12T01:58:22;11.40;;;5.80;;
49416;SDS011;35290;39.550;8.786;2022-11-12T02:00:48;14.38;;;6.60;;
49416;SDS011;35290;39.550;8.786;2022-11-12T02:03:18;13.30;;;6.40;;
49416;SDS011;35290;39.550;8.786;2022-11-12T02:05:45;12.07;;;5.68;;
49416;SDS011;35290;39.550;8.786;2022-11-12T02:08:12;16.90;;;5.80;;
49416;SDS011;35290;39.550;8.786;2022-11-12T02:10:38;14.82;;;5.80;;
49416;SDS011;35290;39.550;8.786;2022-11-12T02:13:04;10.77;;;5.28;;
49416;SDS011;35290;39.550;8.786;2022-11-12T02:15:49;12.15;;;5.32;;
49416;SDS011;35290;39.550;8.786;2022-11-12T02:18:14;12.07;;;5.55;;
49416;SDS011;35290;39.550;8.786;2022-11-12T02:20:40;12.77;;;5.30;;
49416;SDS011;35290;39.550;8.786;2022-11-12T02:23:06;14.82;;;5.35;;
49416;SDS011;35290;39.550;8.786;2022-11-12T02:25:32;9.93;;;4.95;;
49416;SDS011;35290;39.550;8.786;2022-11-12T02:27:58;13.93;;;4.72;;
49416;SDS011;35290;39.550;8.786;2022-11-12T02:30:36;9.75;;;4.55;;
49416;SDS011;35290;39.550;8.786;2022-11-12T02:33:03;8.40;;;5.03;;
49416;SDS011;35290;39.550;8.786;2022-11-12T02:35:28;9.77;;;5.80;;
49416;SDS011;35290;39.550;8.786;2022-11-12T02:37:54;15.13;;;6.28;;
49416;SDS011;35290;39.550;8.786;2022-11-12T02:40:20;13.80;;;6.53;;
49416;SDS011;35290;39.550;8.786;2022-11-12T02:42:45;13.70;;;5.95;;
49416;SDS011;35290;39.550;8.786;2022-11-12T02:45:11;12.85;;;7.97;;
49416;SDS011;35290;39.550;8.786;2022-11-12T02:47:36;15.93;;;7.55;;
49416;SDS011;35290;39.550;8.786;2022-11-12T02:50:02;15.07;;;7.40;;
49416;SDS011;35290;39.550;8.786;2022-11-12T02:52:28;13.05;;;6.53;;
49416;SDS011;35290;39.550;8.786;2022-11-12T02:54:54;11.32;;;6.07;;
49416;SDS011;35290;39.550;8.786;2022-11-12T02:57:20;7.65;;;5.07;;
49416;SDS011;35290;39.550;8.786;2022-11-12T02:59:45;11.43;;;5.53;;
49416;SDS011;35290;39.550;8.786;2022-11-12T03:02:11;10.70;;;4.75;;
49416;SDS011;35290;39.550;8.786;2022-11-12T03:04:36;8.75;;;4.75;;
49416;SDS011;35290;39.550;8.786;2022-11-12T03:07:01;9.13;;;4.85;;
49416;SDS011;35290;39.550;8.786;2022-11-12T03:09:27;11.60;;;5.13;;
49416;SDS011;35290;39.550;8.786;2022-11-12T03:11:52;8.70;;;5.07;;
49416;SDS011;35290;39.550;8.786;2022-11-12T03:14:18;8.32;;;4.95;;
49416;SDS011;35290;39.550;8.786;2022-11-12T03:16:43;9.55;;;4.65;;
49416;SDS011;35290;39.550;8.786;2022-11-12T03:19:09;10.27;;;5.00;;
49416;SDS011;35290;39.550;8.786;2022-11-12T03:21:34;8.15;;;4.95;;
49416;SDS011;35290;39.550;8.786;2022-11-12T03:24:00;11.48;;;4.97;;
49416;SDS011;35290;39.550;8.786;2022-11-12T03:26:26;7.43;;;4.93;;
49416;SDS011;35290;39.550;8.786;2022-11-12T03:28:51;10.20;;;4.90;;
49416;SDS011;35290;39.550;8.786;2022-11-12T03:31:17;12.07;;;5.20;;
49416;SDS011;35290;39.550;8.786;2022-11-12T03:33:42;11.88;;;5.32;;
49416;SDS011;35290;39.550;8.786;2022-11-12T03:36:08;10.77;;;4.90;;
49416;SDS011;35290;39.550;8.786;2022-11-12T03:38:33;12.25;;;5.40;;
49416;SDS011;35290;39.550;8.786;2022-11-12T03:40:59;12.15;;;5.60;;
49416;SDS011;35290;39.550;8.786;2022-11-12T03:43:24;9.95;;;5.28;;
49416;SDS011;35290;39.550;8.786;2022-11-12T03:45:50;10.48;;;5.07;;
49416;SDS011;35290;39.550;8.786;2022-11-12T03:48:15;9.55;;;5.03;;
49416;SDS011;35290;39.550;8.786;2022-11-12T03:50:41;11.45;;;5.13;;
49416;SDS011;35290;39.550;8.786;2022-11-12T03:53:06;9.30;;;4.93;;
49416;SDS011;35290;39.550;8.786;2022-11-12T03:55:32;10.40;;;4.80;;
49416;SDS011;35290;39.550;8.786;2022-11-12T03:57:57;11.75;;;5.38;;
49416;SDS011;35290;39.550;8.786;2022-11-12T04:00:24;12.25;;;5.90;;
49416;SDS011;35290;39.550;8.786;2022-11-12T04:02:51;7.78;;;5.28;;
49416;SDS011;35290;39.550;8.786;2022-11-12T04:05:17;10.95;;;5.50;;
49416;SDS011;35290;39.550;8.786;2022-11-12T04:10:47;14.77;;;5.78;;
49416;SDS011;35290;39.550;8.786;2022-11-12T04:13:12;11.80;;;5.43;;
49416;SDS011;35290;39.550;8.786;2022-11-12T04:18:41;11.93;;;5.53;;
49416;SDS011;35290;39.550;8.786;2022-11-12T04:22:09;10.25;;;5.28;;
49416;SDS011;35290;39.550;8.786;2022-11-12T04:24:29;12.13;;;5.60;;
49416;SDS011;35290;39.550;8.786;2022-11-12T04:29:46;9.93;;;6.13;;
49416;SDS011;35290;39.550;8.786;2022-11-12T04:32:31;7.53;;;5.63;;
49416;SDS011;35290;39.550;8.786;2022-11-12T04:34:58;10.50;;;5.53;;
49416;SDS011;35290;39.550;8.786;2022-11-12T04:37:25;9.65;;;6.10;;
49416;SDS011;35290;39.550;8.786;2022-11-12T04:39:51;10.95;;;6.10;;
49416;SDS011;35290;39.550;8.786;2022-11-12T04:42:17;9.20;;;5.55;;
49416;SDS011;35290;39.550;8.786;2022-11-12T04:45:03;9.70;;;4.90;;
49416;SDS011;35290;39.550;8.786;2022-11-12T04:47:33;7.43;;;5.25;;
49416;SDS011;35290;39.550;8.786;2022-11-12T04:50:04;8.60;;;5.40;;
49416;SDS011;35290;39.550;8.786;2022-11-12T04:52:32;9.27;;;5.32;;
49416;SDS011;35290;39.550;8.786;2022-11-12T04:54:58;10.00;;;5.28;;
49416;SDS011;35290;39.550;8.786;2022-11-12T04:57:23;10.30;;;4.70;;
49416;SDS011;35290;39.550;8.786;2022-11-12T04:59:49;8.27;;;5.00;;
49416;SDS011;35290;39.550;8.786;2022-11-12T05:02:16;10.88;;;5.43;;
49416;SDS011;35290;39.550;8.786;2022-11-12T05:04:41;6.32;;;4.43;;
49416;SDS011;35290;39.550;8.786;2022-11-12T05:07:07;8.55;;;5.30;;
49416;SDS011;35290;39.550;8.786;2022-11-12T05:09:33;8.40;;;4.85;;
49416;SDS011;35290;39.550;8.786;2022-11-12T05:11:59;8.95;;;5.32;;
49416;SDS011;35290;39.550;8.786;2022-11-12T05:14:25;9.75;;;5.10;;
49416;SDS011;35290;39.550;8.786;2022-11-12T05:16:50;9.10;;;5.30;;
49416;SDS011;35290;39.550;8.786;2022-11-12T05:19:16;8.45;;;5.65;;
49416;SDS011;35290;39.550;8.786;2022-11-12T05:21:42;9.25;;;5.53;;
49416;SDS011;35290;39.550;8.786;2022-11-12T05:24:26;8.77;;;5.10;;
49416;SDS011;35290;39.550;8.786;2022-11-12T05:26:52;8.95;;;5.60;;
49416;SDS011;35290;39.550;8.786;2022-11-12T05:29:18;8.80;;;5.38;;
49416;SDS011;35290;39.550;8.786;2022-11-12T05:31:43;7.45;;;5.47;;
49416;SDS011;35290;39.550;8.786;2022-11-12T05:34:09;6.55;;;4.90;;
49416;SDS011;35290;39.550;8.786;2022-11-12T05:36:35;10.55;;;5.43;;
49416;SDS011;35290;39.550;8.786;2022-11-12T05:39:01;7.10;;;4.82;;
49416;SDS011;35290;39.550;8.786;2022-11-12T05:41:27;8.38;;;4.93;;
49416;SDS011;35290;39.550;8.786;2022-11-12T05:43:52;10.98;;;5.13;;
49416;SDS011;35290;39.550;8.786;2022-11-12T05:46:18;12.27;;;5.55;;
49416;SDS011;35290;39.550;8.786;2022-11-12T05:48:43;7.32;;;4.82;;
49416;SDS011;35290;39.550;8.786;2022-11-12T05:51:09;13.10;;;4.97;;
49416;SDS011;35290;39.550;8.786;2022-11-12T05:53:35;7.90;;;5.03;;
49416;SDS011;35290;39.550;8.786;2022-11-12T05:56:00;8.52;;;4.80;;
49416;SDS011;35290;39.550;8.786;2022-11-12T05:58:26;8.13;;;4.75;;
49416;SDS011;35290;39.550;8.786;2022-11-12T06:00:52;8.38;;;4.60;;
49416;SDS011;35290;39.550;8.786;2022-11-12T06:03:17;11.20;;;4.57;;
49416;SDS011;35290;39.550;8.786;2022-11-12T06:05:43;8.25;;;4.45;;
49416;SDS011;35290;39.550;8.786;2022-11-12T06:08:08;8.77;;;4.30;;
49416;SDS011;35290;39.550;8.786;2022-11-12T06:10:34;7.15;;;4.68;;
49416;SDS011;35290;39.550;8.786;2022-11-12T06:12:59;9.32;;;4.47;;
49416;SDS011;35290;39.550;8.786;2022-11-12T06:15:25;13.82;;;5.10;;
49416;SDS011;35290;39.550;8.786;2022-11-12T06:17:54;9.68;;;4.10;;
49416;SDS011;35290;39.550;8.786;2022-11-12T06:20:20;8.73;;;4.72;;
49416;SDS011;35290;39.550;8.786;2022-11-12T06:22:46;8.50;;;4.70;;
49416;SDS011;35290;39.550;8.786;2022-11-12T06:25:12;8.60;;;4.60;;
49416;SDS011;35290;39.550;8.786;2022-11-12T06:27:37;6.22;;;4.20;;
49416;SDS011;35290;39.550;8.786;2022-11-12T06:30:03;6.88;;;4.47;;
49416;SDS011;35290;39.550;8.786;2022-11-12T06:32:30;9.43;;;5.13;;
49416;SDS011;35290;39.550;8.786;2022-11-12T06:34:55;9.20;;;5.68;;
49416;SDS011;35290;39.550;8.786;2022-11-12T06:37:21;10.68;;;5.63;;
49416;SDS011;35290;39.550;8.786;2022-11-12T06:39:47;10.43;;;5.47;;
49416;SDS011;35290;39.550;8.786;2022-11-12T06:42:15;8.65;;;5.90;;
49416;SDS011;35290;39.550;8.786;2022-11-12T06:44:41;11.00;;;5.10;;
49416;SDS011;35290;39.550;8.786;2022-11-12T06:47:07;10.40;;;5.13;;
49416;SDS011;35290;39.550;8.786;2022-11-12T06:49:33;9.30;;;4.78;;
49416;SDS011;35290;39.550;8.786;2022-11-12T06:51:59;8.35;;;4.68;;
49416;SDS011;35290;39.550;8.786;2022-11-12T06:54:24;7.03;;;4.47;;
49416;SDS011;35290;39.550;8.786;2022-11-12T06:56:50;6.15;;;4.20;;
49416;SDS011;35290;39.550;8.786;2022-11-12T06:59:16;8.57;;;4.20;;
49416;SDS011;35290;39.550;8.786;2022-11-12T07:01:41;8.63;;;4.10;;
49416;SDS011;35290;39.550;8.786;2022-11-12T07:04:07;8.77;;;3.88;;
49416;SDS011;35290;39.550;8.786;2022-11-12T07:06:32;8.43;;;3.90;;
49416;SDS011;35290;39.550;8.786;2022-11-12T07:08:58;8.73;;;4.20;;
49416;SDS011;35290;39.550;8.786;2022-11-12T07:11:23;6.88;;;4.13;;
49416;SDS011;35290;39.550;8.786;2022-11-12T07:13:49;6.75;;;4.30;;
49416;SDS011;35290;39.550;8.786;2022-11-12T07:16:16;7.85;;;4.05;;
49416;SDS011;35290;39.550;8.786;2022-11-12T07:18:43;10.23;;;4.18;;
49416;SDS011;35290;39.550;8.786;2022-11-12T07:21:10;8.45;;;4.00;;
49416;SDS011;35290;39.550;8.786;2022-11-12T07:23:37;6.40;;;4.10;;
49416;SDS011;35290;39.550;8.786;2022-11-12T07:26:07;5.78;;;4.07;;
49416;SDS011;35290;39.550;8.786;2022-11-12T07:28:43;6.82;;;3.85;;
49416;SDS011;35290;39.550;8.786;2022-11-12T07:31:10;9.80;;;4.13;;
49416;SDS011;35290;39.550;8.786;2022-11-12T07:33:36;11.15;;;4.15;;
49416;SDS011;35290;39.550;8.786;2022-11-12T07:36:03;9.98;;;4.38;;
49416;SDS011;35290;39.550;8.786;2022-11-12T07:38:30;9.65;;;4.15;;
49416;SDS011;35290;39.550;8.786;2022-11-12T07:40:58;8.80;;;4.28;;
49416;SDS011;35290;39.550;8.786;2022-11-12T07:43:24;8.00;;;3.60;;
49416;SDS011;35290;39.550;8.786;2022-11-12T07:45:50;6.22;;;3.72;;
49416;SDS011;35290;39.550;8.786;2022-11-12T07:48:15;10.45;;;4.10;;
49416;SDS011;35290;39.550;8.786;2022-11-12T07:50:41;8.20;;;4.10;;
49416;SDS011;35290;39.550;8.786;2022-11-12T07:53:06;7.22;;;4.13;;
49416;SDS011;35290;39.550;8.786;2022-11-12T07:55:32;10.45;;;4.30;;
49416;SDS011;35290;39.550;8.786;2022-11-12T07:57:58;9.10;;;4.20;;
49416;SDS011;35290;39.550;8.786;2022-11-12T08:00:24;6.22;;;3.92;;
49416;SDS011;35290;39.550;8.786;2022-11-12T08:02:49;8.85;;;4.40;;
49416;SDS011;35290;39.550;8.786;2022-11-12T08:05:15;8.10;;;4.15;;
49416;SDS011;35290;39.550;8.786;2022-11-12T08:07:40;7.45;;;4.03;;
49416;SDS011;35290;39.550;8.786;2022-11-12T08:10:06;8.63;;;4.63;;
49416;SDS011;35290;39.550;8.786;2022-11-12T08:12:32;7.95;;;4.15;;
49416;SDS011;35290;39.550;8.786;2022-11-12T08:14:57;15.10;;;5.60;;
49416;SDS011;35290;39.550;8.786;2022-11-12T08:17:23;21.88;;;8.20;;
49416;SDS011;35290;39.550;8.786;2022-11-12T08:19:48;25.33;;;9.65;;
49416;SDS011;35290;39.550;8.786;2022-11-12T08:22:19;24.30;;;8.95;;
49416;SDS011;35290;39.550;8.786;2022-11-12T08:24:44;23.40;;;8.15;;
49416;SDS011;35290;39.550;8.786;2022-11-12T08:27:10;20.05;;;7.25;;
49416;SDS011;35290;39.550;8.786;2022-11-12T08:29:35;20.38;;;7.40;;
49416;SDS011;35290;39.550;8.786;2022-11-12T08:32:01;15.60;;;6.93;;
49416;SDS011;35290;39.550;8.786;2022-11-12T08:34:27;20.80;;;7.18;;
49416;SDS011;35290;39.550;8.786;2022-11-12T08:36:53;14.10;;;5.85;;
49416;SDS011;35290;39.550;8.786;2022-11-12T08:39:18;15.70;;;5.70;;
49416;SDS011;35290;39.550;8.786;2022-11-12T08:41:44;13.57;;;5.93;;
49416;SDS011;35290;39.550;8.786;2022-11-12T08:44:09;13.00;;;5.35;;
49416;SDS011;35290;39.550;8.786;2022-11-12T08:46:35;17.45;;;6.47;;
49416;SDS011;35290;39.550;8.786;2022-11-12T08:49:00;17.45;;;6.00;;
49416;SDS011;35290;39.550;8.786;2022-11-12T08:51:26;17.38;;;6.00;;
49416;SDS011;35290;39.550;8.786;2022-11-12T08:53:51;14.40;;;6.57;;
49416;SDS011;35290;39.550;8.786;2022-11-12T08:56:17;16.40;;;6.35;;
49416;SDS011;35290;39.550;8.786;2022-11-12T08:58:42;17.27;;;7.63;;
49416;SDS011;35290;39.550;8.786;2022-11-12T09:01:08;16.50;;;6.53;;
49416;SDS011;35290;39.550;8.786;2022-11-12T09:03:34;16.55;;;6.50;;
49416;SDS011;35290;39.550;8.786;2022-11-12T09:06:03;11.90;;;5.13;;
49416;SDS011;35290;39.550;8.786;2022-11-12T09:08:31;10.40;;;5.15;;
49416;SDS011;35290;39.550;8.786;2022-11-12T09:10:57;16.83;;;6.13;;
49416;SDS011;35290;39.550;8.786;2022-11-12T09:13:23;17.42;;;6.55;;
49416;SDS011;35290;39.550;8.786;2022-11-12T09:15:48;15.25;;;6.00;;
49416;SDS011;35290;39.550;8.786;2022-11-12T09:18:15;15.60;;;7.38;;
49416;SDS011;35290;39.550;8.786;2022-11-12T09:20:41;17.23;;;7.90;;
49416;SDS011;35290;39.550;8.786;2022-11-12T09:23:08;18.27;;;8.23;;
49416;SDS011;35290;39.550;8.786;2022-11-12T09:25:35;18.42;;;8.45;;
49416;SDS011;35290;39.550;8.786;2022-11-12T09:28:14;18.25;;;8.07;;
49416;SDS011;35290;39.550;8.786;2022-11-12T09:30:42;17.05;;;7.55;;
49416;SDS011;35290;39.550;8.786;2022-11-12T09:33:11;15.95;;;6.95;;
49416;SDS011;35290;39.550;8.786;2022-11-12T09:35:37;15.43;;;6.15;;
49416;SDS011;35290;39.550;8.786;2022-11-12T09:38:03;19.33;;;5.65;;
49416;SDS011;35290;39.550;8.786;2022-11-12T09:40:36;13.00;;;4.53;;
49416;SDS011;35290;39.550;8.786;2022-11-12T09:43:20;19.33;;;6.05;;
49416;SDS011;35290;39.550;8.786;2022-11-12T09:46:01;12.18;;;6.68;;
49416;SDS011;35290;39.550;8.786;2022-11-12T09:51:05;15.18;;;6.28;;
49416;SDS011;35290;39.550;8.786;2022-11-12T09:53:43;15.88;;;5.47;;
49416;SDS011;35290;39.550;8.786;2022-11-12T09:56:12;10.60;;;4.68;;
49416;SDS011;35290;39.550;8.786;2022-11-12T09:58:38;12.57;;;4.25;;
49416;SDS011;35290;39.550;8.786;2022-11-12T10:04:38;10.88;;;3.42;;
49416;SDS011;35290;39.550;8.786;2022-11-12T10:18:03;5.50;;;2.70;;
49416;SDS011;35290;39.550;8.786;2022-11-12T10:20:47;10.18;;;2.80;;
49416;SDS011;35290;39.550;8.786;2022-11-12T10:23:18;14.10;;;3.30;;
49416;SDS011;35290;39.550;8.786;2022-11-12T10:25:48;10.02;;;3.00;;
49416;SDS011;35290;39.550;8.786;2022-11-12T10:30:45;7.70;;;3.20;;
49416;SDS011;35290;39.550;8.786;2022-11-12T10:33:14;9.25;;;3.25;;
49416;SDS011;35290;39.550;8.786;2022-11-12T10:35:40;13.45;;;3.60;;
49416;SDS011;35290;39.550;8.786;2022-11-12T10:38:06;9.55;;;3.80;;
49416;SDS011;35290;39.550;8.786;2022-11-12T10:40:37;14.70;;;3.67;;
49416;SDS011;35290;39.550;8.786;2022-11-12T10:43:05;13.00;;;4.15;;
49416;SDS011;35290;39.550;8.786;2022-11-12T10:45:31;15.73;;;4.68;;
49416;SDS011;35290;39.550;8.786;2022-11-12T10:47:59;13.20;;;4.95;;
49416;SDS011;35290;39.550;8.786;2022-11-12T10:53:06;11.43;;;3.50;;
49416;SDS011;35290;39.550;8.786;2022-11-12T10:55:35;10.15;;;2.60;;
49416;SDS011;35290;39.550;8.786;2022-11-12T11:00:31;8.63;;;2.75;;
49416;SDS011;35290;39.550;8.786;2022-11-12T11:02:57;8.77;;;2.58;;
49416;SDS011;35290;39.550;8.786;2022-11-12T11:07:58;9.85;;;2.65;;
49416;SDS011;35290;39.550;8.786;2022-11-12T11:12:49;9.18;;;2.63;;
49416;SDS011;35290;39.550;8.786;2022-11-12T11:16:02;10.15;;;2.47;;
49416;SDS011;35290;39.550;8.786;2022-11-12T11:18:31;9.15;;;2.25;;
49416;SDS011;35290;39.550;8.786;2022-11-12T11:21:06;9.88;;;2.47;;
49416;SDS011;35290;39.550;8.786;2022-11-12T11:26:27;8.88;;;2.47;;
49416;SDS011;35290;39.550;8.786;2022-11-12T11:34:10;6.18;;;2.22;;
49416;SDS011;35290;39.550;8.786;2022-11-12T11:51:28;8.93;;;4.55;;
49416;SDS011;35290;39.550;8.786;2022-11-12T11:56:30;11.55;;;3.92;;
49416;SDS011;35290;39.550;8.786;2022-11-12T12:07:47;8.95;;;3.30;;
49416;SDS011;35290;39.550;8.786;2022-11-12T12:21:16;12.98;;;7.43;;
49416;SDS011;35290;39.550;8.786;2022-11-12T12:23:50;13.82;;;5.82;;
49416;SDS011;35290;39.550;8.786;2022-11-12T12:26:22;12.70;;;4.75;;
49416;SDS011;35290;39.550;8.786;2022-11-12T12:31:42;20.40;;;5.90;;
49416;SDS011;35290;39.550;8.786;2022-11-12T12:34:21;7.25;;;4.03;;
49416;SDS011;35290;39.550;8.786;2022-11-12T12:36:53;10.35;;;3.00;;
49416;SDS011;35290;39.550;8.786;2022-11-12T12:39:25;11.07;;;2.75;;
49416;SDS011;35290;39.550;8.786;2022-11-12T12:41:59;10.38;;;2.70;;
49416;SDS011;35290;39.550;8.786;2022-11-12T12:44:29;7.90;;;2.45;;
49416;SDS011;35290;39.550;8.786;2022-11-12T12:47:13;8.35;;;2.28;;
49416;SDS011;35290;39.550;8.786;2022-11-12T12:49:39;16.08;;;2.60;;
49416;SDS011;35290;39.550;8.786;2022-11-12T12:52:05;8.35;;;2.50;;
49416;SDS011;35290;39.550;8.786;2022-11-12T12:56:59;9.32;;;2.88;;
49416;SDS011;35290;39.550;8.786;2022-11-12T12:59:25;9.40;;;2.72;;
49416;SDS011;35290;39.550;8.786;2022-11-12T13:02:32;9.65;;;2.72;;
49416;SDS011;35290;39.550;8.786;2022-11-12T13:07:19;6.57;;;2.50;;
49416;SDS011;35290;39.550;8.786;2022-11-12T13:13:05;12.10;;;3.17;;
49416;SDS011;35290;39.550;8.786;2022-11-12T13:15:52;8.90;;;2.40;;
49416;SDS011;35290;39.550;8.786;2022-11-12T13:21:10;11.82;;;3.17;;
49416;SDS011;35290;39.550;8.786;2022-11-12T13:29:22;8.27;;;2.20;;
49416;SDS011;35290;39.550;8.786;2022-11-12T13:31:49;10.82;;;2.10;;
49416;SDS011;35290;39.550;8.786;2022-11-12T13:34:34;12.63;;;3.30;;
49416;SDS011;35290;39.550;8.786;2022-11-12T13:37:01;10.45;;;2.85;;
49416;SDS011;35290;39.550;8.786;2022-11-12T13:39:28;9.90;;;3.17;;
49416;SDS011;35290;39.550;8.786;2022-11-12T13:41:57;11.18;;;3.55;;
49416;SDS011;35290;39.550;8.786;2022-11-12T13:44:41;8.75;;;3.67;;
49416;SDS011;35290;39.550;8.786;2022-11-12T13:47:15;11.85;;;3.70;;
49416;SDS011;35290;39.550;8.786;2022-11-12T13:49:43;13.38;;;3.40;;
49416;SDS011;35290;39.550;8.786;2022-11-12T13:52:11;14.25;;;3.70;;
49416;SDS011;35290;39.550;8.786;2022-11-12T13:54:39;14.00;;;3.22;;
49416;SDS011;35290;39.550;8.786;2022-11-12T14:02:58;8.48;;;2.58;;
49416;SDS011;35290;39.550;8.786;2022-11-12T14:05:27;8.77;;;2.80;;
49416;SDS011;35290;39.550;8.786;2022-11-12T14:16:18;13.13;;;2.67;;
49416;SDS011;35290;39.550;8.786;2022-11-12T14:18:55;9.18;;;3.10;;
49416;SDS011;35290;39.550;8.786;2022-11-12T14:21:30;9.25;;;3.20;;
49416;SDS011;35290;39.550;8.786;2022-11-12T14:23:55;10.45;;;4.03;;
49416;SDS011;35290;39.550;8.786;2022-11-12T14:26:37;6.63;;;3.10;;
49416;SDS011;35290;39.550;8.786;2022-11-12T14:29:05;10.95;;;3.00;;
49416;SDS011;35290;39.550;8.786;2022-11-12T14:31:31;9.68;;;2.17;;
49416;SDS011;35290;39.550;8.786;2022-11-12T14:34:17;6.05;;;2.30;;
49416;SDS011;35290;39.550;8.786;2022-11-12T14:36:48;13.60;;;2.40;;
49416;SDS011;35290;39.550;8.786;2022-11-12T14:39:16;9.15;;;2.30;;
49416;SDS011;35290;39.550;8.786;2022-11-12T14:41:42;8.85;;;2.33;;
49416;SDS011;35290;39.550;8.786;2022-11-12T14:44:15;9.00;;;2.63;;
49416;SDS011;35290;39.550;8.786;2022-11-12T14:46:45;9.35;;;2.80;;
49416;SDS011;35290;39.550;8.786;2022-11-12T14:51:55;8.10;;;2.10;;
49416;SDS011;35290;39.550;8.786;2022-11-12T14:54:29;13.57;;;2.22;;
49416;SDS011;35290;39.550;8.786;2022-11-12T14:57:05;9.05;;;2.17;;
49416;SDS011;35290;39.550;8.786;2022-11-12T14:59:35;11.60;;;2.50;;
49416;SDS011;35290;39.550;8.786;2022-11-12T15:04:34;9.65;;;2.22;;
49416;SDS011;35290;39.550;8.786;2022-11-12T15:07:01;9.00;;;2.20;;
49416;SDS011;35290;39.550;8.786;2022-11-12T15:09:35;11.05;;;2.47;;
49416;SDS011;35290;39.550;8.786;2022-11-12T15:12:10;9.25;;;2.58;;
49416;SDS011;35290;39.550;8.786;2022-11-12T15:14:38;10.65;;;2.50;;
49416;SDS011;35290;39.550;8.786;2022-11-12T15:17:04;8.00;;;2.80;;
49416;SDS011;35290;39.550;8.786;2022-11-12T15:19:30;8.48;;;2.30;;
49416;SDS011;35290;39.550;8.786;2022-11-12T15:21:59;8.50;;;2.88;;
49416;SDS011;35290;39.550;8.786;2022-11-12T15:24:32;9.93;;;2.42;;
49416;SDS011;35290;39.550;8.786;2022-11-12T15:26:59;8.50;;;2.30;;
49416;SDS011;35290;39.550;8.786;2022-11-12T15:29:44;9.35;;;2.38;;
49416;SDS011;35290;39.550;8.786;2022-11-12T15:37:05;8.50;;;3.70;;
49416;SDS011;35290;39.550;8.786;2022-11-12T15:39:33;14.43;;;3.33;;
49416;SDS011;35290;39.550;8.786;2022-11-12T15:42:05;8.65;;;2.63;;
49416;SDS011;35290;39.550;8.786;2022-11-12T15:44:38;7.10;;;2.80;;
49416;SDS011;35290;39.550;8.786;2022-11-12T15:47:04;10.20;;;3.17;;
49416;SDS011;35290;39.550;8.786;2022-11-12T15:49:29;11.95;;;2.90;;
49416;SDS011;35290;39.550;8.786;2022-11-12T15:51:55;9.95;;;3.00;;
49416;SDS011;35290;39.550;8.786;2022-11-12T15:54:20;8.57;;;3.17;;
49416;SDS011;35290;39.550;8.786;2022-11-12T15:56:46;10.85;;;3.30;;
49416;SDS011;35290;39.550;8.786;2022-11-12T15:59:15;9.32;;;3.55;;
49416;SDS011;35290;39.550;8.786;2022-11-12T16:01:42;17.42;;;3.67;;
49416;SDS011;35290;39.550;8.786;2022-11-12T16:04:09;10.68;;;5.53;;
49416;SDS011;35290;39.550;8.786;2022-11-12T16:06:36;19.83;;;8.00;;
49416;SDS011;35290;39.550;8.786;2022-11-12T16:09:01;19.83;;;11.18;;
49416;SDS011;35290;39.550;8.786;2022-11-12T16:11:27;35.05;;;20.23;;
49416;SDS011;35290;39.550;8.786;2022-11-12T16:14:02;63.08;;;40.80;;
49416;SDS011;35290;39.550;8.786;2022-11-12T16:16:29;55.30;;;41.17;;
49416;SDS011;35290;39.550;8.786;2022-11-12T16:18:55;56.15;;;40.97;;
49416;SDS011;35290;39.550;8.786;2022-11-12T16:21:21;45.05;;;32.15;;
49416;SDS011;35290;39.550;8.786;2022-11-12T16:23:46;29.17;;;18.30;;
49416;SDS011;35290;39.550;8.786;2022-11-12T16:26:12;19.52;;;12.00;;
49416;SDS011;35290;39.550;8.786;2022-11-12T16:28:39;19.23;;;9.38;;
49416;SDS011;35290;39.550;8.786;2022-11-12T16:31:05;21.00;;;8.50;;
49416;SDS011;35290;39.550;8.786;2022-11-12T16:33:30;12.45;;;5.35;;
49416;SDS011;35290;39.550;8.786;2022-11-12T16:35:56;13.48;;;5.05;;
49416;SDS011;35290;39.550;8.786;2022-11-12T16:38:21;17.48;;;4.70;;
49416;SDS011;35290;39.550;8.786;2022-11-12T16:40:49;13.50;;;4.20;;
49416;SDS011;35290;39.550;8.786;2022-11-12T16:43:15;20.88;;;8.18;;
49416;SDS011;35290;39.550;8.786;2022-11-12T16:45:41;23.38;;;10.27;;
49416;SDS011;35290;39.550;8.786;2022-11-12T16:48:18;20.92;;;10.70;;
49416;SDS011;35290;39.550;8.786;2022-11-12T16:50:44;18.35;;;8.43;;
49416;SDS011;35290;39.550;8.786;2022-11-12T16:53:10;17.73;;;7.63;;